MMOX/OAX METAR and TAF weather

Enter ICAO airport designator
Station Type Date Time Source
MMOX METAR 2019/04/25 17:49 UTC NOAA

MMOX 251749Z 00000KT 7SM SKC 28/03 A3013 RMK SLP073 57017 905 HZY


Station Type Date Time Source
MMOX Decoded METAR 2019/04/25 17:49 UTC NOAA

Oaxaca / Xoxocotlan, Mexico (MMOX) 16-58N 096-44W
Apr 25, 2019 - 01:49 PM EDT / 2019.04.25 1749 UTC
Wind: Calm:0
Visibility: 7 mile(s):0
Sky conditions: clear
Temperature: 82 F (28 C)
Dew Point: 37 F (3 C)
Relative Humidity: 20%
Pressure (altimeter): 30.13 in. Hg (1020 hPa)
Pressure tendency: 0.05 inches (1.7 hPa) lower than three hours ago
ob: MMOX 251749Z 00000KT 7SM SKC 28/03 A3013 RMK SLP073 57017 905 HZY
cycle: 18

Station Type Date Time Source
MMOX TAF 2019/04/25 18:26 UTC NOAA

TAF MMOX 251619Z 2518/2618 14010KT P6SM SKC
FM252100 16015KT P6SM SCT025
FM260300 03010KT P6SM SCT015
TEMPO 2612/2616 BKN015

Example: see airport list